Sault Ste Marie Airport
CYAM : now visible

Airfield :











YOU CAN JOIN US ON...

 
LOGIN :

Register | Disclaimer

   EN    FR    IT 

 









Legend :    VFR   Marginal VFR   IFR   Intensive IFR   Very Intensive IFR
Visi :
Ceiling :
>= 8 km
>= 3000ft
5 to 8 km
1000 to 3000 ft
1500m to 5 km
500 to 1000 ft
800 to 1500m
200 to 500 ft
< 800m
< 200 ft
Symbols :   Thunderstorms  Fog  Heavy snow  Heavy precipitations  Wind > 20 kt






- Airport Elevation : 630 ft
- IATA code : YAM


CYAM - Sault Ste Marie

CURRENT METAR :
  • 251800Z 10004KT 060V150 25SM FEW017TCU BKN044 BKN061 BKN120 04/M02 A3025 RMK TCU1CU5CU1AS1 AS TR SLP255

EXPIRED METARs :
  • 251700Z 10003KT 060V130 25SM FEW023TCU BKN049 BKN120 OVC200 04/M01 A3028 RMK TCU2CU4AS1CS1 SLP265
  • 251600Z 09004KT 060V160 25SM FEW034TCU BKN057 BKN100 BKN200 03/M00 A3027 RMK TCU1CU5AS1CS1 SLP262

TAF TAF CYAM
Valid from the 25 at 14:00 until the 26 at 02:00 UTC


251338Z 2514/2602 VRB03KT P6SM SCT010 OVC060
TEMPO 2514/2521 P6SM -SHRASN FEW007 OVC010
BECMG 2516/2518 10008KT
FM252100 11007KT P6SM SCT010 OVC040
TEMPO 2521/2602 4SM -RASN BR SCT006 OVC010 RMK NXT FCST BY 252000Z
CZYZ FIR / North America



MET'MAP, your aeronautical weather chart ! - Copyright ORBIFLY December 2007 - Disclaimer

ORBIFLY MET'MAP TEAM :

Programming & Development : Alexandra Zaïnal
Concept & original design : Baudouin d'Aumeries
Assistance for programming : Marc-Olivier Méhu
Technical & hardware support : Manuel Goepfert

Contact : metmap@orbifly.com




SOURCES & CREDITS :

   NOAA       Earth
Advisory